createdAt,value
2019-03-01T00:01:25.117Z,48.70
2019-03-01T00:04:19.467Z,46.63
2019-03-01T00:07:55.979Z,51.33
2019-03-01T00:11:11.658Z,46.17
2019-03-01T00:14:37.690Z,50.83
2019-03-01T00:17:54.409Z,48.00
2019-03-01T00:21:18.294Z,52.23
2019-03-01T00:24:57.398Z,46.53
2019-03-01T00:28:19.624Z,51.33
2019-03-01T00:31:53.620Z,51.87
2019-03-01T00:34:44.053Z,52.07
2019-03-01T00:37:58.219Z,52.10
2019-03-01T00:41:29.952Z,53.23
2019-03-01T00:44:35.007Z,47.00
2019-03-01T00:47:07.426Z,49.27
2019-03-01T00:49:38.610Z,50.77
2019-03-01T00:52:10.699Z,50.63
2019-03-01T00:54:42.866Z,46.67
2019-03-01T00:57:14.811Z,47.87
2019-03-01T00:59:46.179Z,48.50
2019-03-01T01:02:17.484Z,44.53
2019-03-01T01:04:48.801Z,45.17
2019-03-01T01:07:20.111Z,46.73
2019-03-01T01:09:51.418Z,46.37
2019-03-01T01:12:23.507Z,47.47
2019-03-01T01:14:55.290Z,46.40
2019-03-01T01:17:27.138Z,42.77
2019-03-01T01:19:59.836Z,41.40
2019-03-01T01:22:31.689Z,41.47
2019-03-01T01:25:03.274Z,40.27
2019-03-01T01:27:34.662Z,41.80
2019-03-01T01:30:17.671Z,41.00
2019-03-01T01:32:50.036Z,45.87
2019-03-01T01:35:23.874Z,39.90
2019-03-01T01:37:55.156Z,42.77
2019-03-01T01:40:26.251Z,41.67
2019-03-01T01:42:58.147Z,45.23
2019-03-01T01:45:30.568Z,42.97
2019-03-01T01:48:02.929Z,39.40
2019-03-01T01:50:34.542Z,43.00
2019-03-01T01:53:06.304Z,39.60
2019-03-01T01:55:37.612Z,39.97
2019-03-01T01:58:09.841Z,42.30
2019-03-01T02:00:41.883Z,39.17
2019-03-01T02:03:13.493Z,42.80
2019-03-01T02:05:45.713Z,39.83
2019-03-01T02:08:17.553Z,42.33
2019-03-01T02:10:49.176Z,42.67
2019-03-01T02:13:21.766Z,41.97
2019-03-01T02:15:53.041Z,39.67
2019-03-01T02:18:24.989Z,42.97
2019-03-01T02:20:57.171Z,39.70
2019-03-01T02:23:28.785Z,39.50
2019-03-01T02:26:00.643Z,43.97
2019-03-01T02:28:31.914Z,45.87
2019-03-01T02:31:05.497Z,39.50
2019-03-01T02:33:36.857Z,40.20
2019-03-01T02:36:08.816Z,43.23
2019-03-01T02:38:40.658Z,39.63
2019-03-01T02:41:12.004Z,38.17
2019-03-01T02:43:43.884Z,37.47
2019-03-01T02:46:15.555Z,38.27
2019-03-01T02:48:47.306Z,39.90
2019-03-01T02:51:18.614Z,37.87
2019-03-01T02:53:49.897Z,38.50
2019-03-01T02:56:21.211Z,37.83
2019-03-01T02:58:52.536Z,33.50
2019-03-01T03:01:23.909Z,34.93
2019-03-01T03:03:55.238Z,34.43
2019-03-01T03:06:38.333Z,35.57
2019-03-01T03:09:11.375Z,38.13
2019-03-01T03:11:42.717Z,34.00
2019-03-01T03:14:14.029Z,32.90
2019-03-01T03:16:45.839Z,32.10
2019-03-01T03:19:17.515Z,35.23
2019-03-01T03:21:49.468Z,33.10
2019-03-01T03:24:21.316Z,30.27
2019-03-01T03:26:52.864Z,30.10
2019-03-01T03:29:24.218Z,29.27
2019-03-01T03:31:55.522Z,28.63
2019-03-01T03:34:27.264Z,28.93
2019-03-01T03:36:58.877Z,30.10
2019-03-01T03:39:31.031Z,26.33
2019-03-01T03:42:02.335Z,29.70
2019-03-01T03:44:34.397Z,25.90
2019-03-01T03:47:06.285Z,25.40
2019-03-01T03:49:38.171Z,26.43
2019-03-01T03:52:09.791Z,27.63
2019-03-01T03:54:41.351Z,24.87
2019-03-01T03:57:12.891Z,25.20
2019-03-01T03:59:45.018Z,25.03
2019-03-01T04:02:16.818Z,24.00
2019-03-01T04:04:48.701Z,26.20
2019-03-01T04:07:20.994Z,22.13
2019-03-01T04:09:52.865Z,28.53
2019-03-01T04:12:24.617Z,30.63
2019-03-01T04:14:55.981Z,24.47
2019-03-01T04:17:27.382Z,32.37
2019-03-01T04:19:59.196Z,25.87
2019-03-01T04:22:30.555Z,24.67
2019-03-01T04:25:02.224Z,24.57
2019-03-01T04:27:34.280Z,23.20
2019-03-01T04:30:07.960Z,22.37
2019-03-01T04:32:39.390Z,23.83
2019-03-01T04:35:11.516Z,28.80
2019-03-01T04:37:43.019Z,23.67
2019-03-01T04:40:15.736Z,23.03
2019-03-01T04:42:47.717Z,22.10
2019-03-01T04:45:18.846Z,21.73
2019-03-01T04:47:50.408Z,23.27
2019-03-01T04:50:22.189Z,21.07
2019-03-01T04:52:53.416Z,23.93
2019-03-01T04:55:26.344Z,23.90
2019-03-01T04:57:58.092Z,20.73
2019-03-01T05:00:29.650Z,22.30
2019-03-01T05:03:01.499Z,20.87
2019-03-01T05:05:33.771Z,20.43
2019-03-01T05:08:04.889Z,21.03
2019-03-01T05:10:37.982Z,21.70
2019-03-01T05:13:09.603Z,19.00
2019-03-01T05:15:41.039Z,20.53
2019-03-01T05:18:12.858Z,19.00
2019-03-01T05:20:45.860Z,19.60
2019-03-01T05:23:17.576Z,20.83
2019-03-01T05:25:48.649Z,20.80
2019-03-01T05:28:19.958Z,17.27
2019-03-01T05:30:51.447Z,17.27
2019-03-01T05:33:22.777Z,18.73
2019-03-01T05:35:54.238Z,17.33
2019-03-01T05:38:25.829Z,18.03
2019-03-01T05:40:57.690Z,17.27
2019-03-01T05:43:28.718Z,18.97
2019-03-01T05:46:01.177Z,16.37
2019-03-01T05:48:32.291Z,17.40
2019-03-01T05:51:04.605Z,17.27
2019-03-01T05:53:35.763Z,18.23
2019-03-01T05:56:07.514Z,18.17
2019-03-01T05:59:07.803Z,17.00
2019-03-01T06:01:52.724Z,15.30
2019-03-01T06:04:53.816Z,18.83
2019-03-01T06:07:52.887Z,17.40
2019-03-01T06:10:57.326Z,18.67
2019-03-01T06:14:13.622Z,18.67
2019-03-01T06:18:01.645Z,21.60
2019-03-01T06:21:34.828Z,17.17
2019-03-01T06:24:56.578Z,19.80
2019-03-01T06:27:51.792Z,19.03
2019-03-01T06:31:08.438Z,18.13
2019-03-01T06:34:21.521Z,17.90
2019-03-01T06:37:36.481Z,19.13
2019-03-01T06:41:13.900Z,18.73
2019-03-01T06:44:41.816Z,20.23
2019-03-01T06:47:51.158Z,17.07
2019-03-01T06:50:50.297Z,16.80
2019-03-01T06:53:21.668Z,17.77
2019-03-01T06:56:00.122Z,17.73
2019-03-01T06:58:45.220Z,15.67
2019-03-01T07:01:18.946Z,16.20
2019-03-01T07:03:55.735Z,16.33
2019-03-01T07:06:26.975Z,16.90
2019-03-01T07:08:58.273Z,16.90
2019-03-01T07:11:30.722Z,15.80
2019-03-01T07:14:02.050Z,16.00
2019-03-01T07:16:33.387Z,15.53
2019-03-01T07:19:05.101Z,14.77
2019-03-01T07:21:36.766Z,15.20
2019-03-01T07:24:08.101Z,15.07
2019-03-01T07:26:39.775Z,15.00
2019-03-01T07:29:11.049Z,16.17
2019-03-01T07:31:42.689Z,18.63
2019-03-01T07:34:14.433Z,17.10
2019-03-01T07:36:46.279Z,18.90
2019-03-01T07:39:18.196Z,15.80
2019-03-01T07:41:49.926Z,16.17
2019-03-01T07:44:21.824Z,18.57
2019-03-01T07:46:54.327Z,16.27
2019-03-01T07:49:25.727Z,14.77
2019-03-01T07:51:57.576Z,16.57
2019-03-01T07:54:28.587Z,14.90
2019-03-01T07:57:00.238Z,17.27
2019-03-01T07:59:33.455Z,16.50
2019-03-01T08:02:05.487Z,18.50
2019-03-01T08:04:38.012Z,16.60
2019-03-01T08:07:11.035Z,19.70
2019-03-01T08:09:44.750Z,19.17
2019-03-01T08:12:15.941Z,20.93
2019-03-01T08:14:47.232Z,20.73
2019-03-01T08:17:20.128Z,19.50
2019-03-01T08:19:54.857Z,24.90
2019-03-01T08:22:25.981Z,33.10
2019-03-01T08:24:57.398Z,24.43
2019-03-01T08:27:28.745Z,16.47
2019-03-01T08:30:00.281Z,15.60
2019-03-01T08:32:32.147Z,16.67
2019-03-01T08:35:05.923Z,15.53
2019-03-01T08:37:38.071Z,18.43
2019-03-01T08:40:14.646Z,17.10
2019-03-01T08:42:47.378Z,16.50
2019-03-01T08:45:19.117Z,17.60
2019-03-01T08:47:50.792Z,18.33
2019-03-01T08:50:22.967Z,18.23
2019-03-01T08:52:54.703Z,16.90
2019-03-01T08:55:26.553Z,17.77
2019-03-01T08:57:59.429Z,17.87
2019-03-01T09:00:32.319Z,16.30
2019-03-01T09:03:10.974Z,20.97
2019-03-01T09:05:43.213Z,13.77
2019-03-01T09:08:14.740Z,15.73
2019-03-01T09:10:46.124Z,13.40
2019-03-01T09:13:17.440Z,15.33
2019-03-01T09:15:49.472Z,14.33
2019-03-01T09:18:21.704Z,13.23
2019-03-01T09:20:52.760Z,12.87
2019-03-01T09:23:27.284Z,12.23
2019-03-01T09:25:57.656Z,11.47
2019-03-01T09:28:29.234Z,12.67
2019-03-01T09:31:00.899Z,12.43
2019-03-01T09:33:32.741Z,12.37
2019-03-01T09:36:11.110Z,11.63
2019-03-01T09:38:43.704Z,11.90
2019-03-01T09:41:15.656Z,14.70
2019-03-01T09:43:46.931Z,13.27
2019-03-01T09:46:20.936Z,10.33
2019-03-01T09:48:52.671Z,12.60
2019-03-01T09:51:24.762Z,10.63
2019-03-01T09:53:56.082Z,10.67
2019-03-01T09:56:27.443Z,10.83
2019-03-01T09:58:58.451Z,9.50
2019-03-01T10:01:29.740Z,9.10
2019-03-01T10:04:02.059Z,10.00
2019-03-01T10:06:38.152Z,9.63
2019-03-01T10:09:11.836Z,10.17
2019-03-01T10:11:43.333Z,12.63
2019-03-01T10:14:15.498Z,10.10
2019-03-01T10:16:46.839Z,11.33
2019-03-01T10:19:18.193Z,11.53
2019-03-01T10:21:49.896Z,10.57
2019-03-01T10:24:21.319Z,11.40
2019-03-01T10:26:52.643Z,12.33
2019-03-01T10:29:24.100Z,12.93
2019-03-01T10:31:56.111Z,11.03
2019-03-01T10:34:27.944Z,15.13
2019-03-01T10:36:59.822Z,14.43
2019-03-01T10:39:31.117Z,13.30
2019-03-01T10:42:02.171Z,14.27
2019-03-01T10:44:33.414Z,16.33
2019-03-01T10:47:04.681Z,14.27
2019-03-01T10:49:35.990Z,16.73
2019-03-01T10:52:07.336Z,15.63
2019-03-01T10:54:38.616Z,17.77
2019-03-01T10:57:10.321Z,17.60
2019-03-01T10:59:42.203Z,16.73
2019-03-01T11:02:14.067Z,18.17
2019-03-01T11:04:45.394Z,16.10
2019-03-01T11:07:17.608Z,17.03
2019-03-01T11:09:49.223Z,17.37
2019-03-01T11:12:21.308Z,19.70
2019-03-01T11:14:53.067Z,18.73
2019-03-01T11:17:24.877Z,17.20
2019-03-01T11:19:56.463Z,18.73
2019-03-01T11:22:28.108Z,16.97
2019-03-01T11:24:59.150Z,17.93
2019-03-01T11:27:30.779Z,20.23
2019-03-01T11:30:02.101Z,16.73
2019-03-01T11:32:34.353Z,19.50
2019-03-01T11:35:05.975Z,17.07
2019-03-01T11:37:37.407Z,17.13
2019-03-01T11:40:11.991Z,18.03
2019-03-01T11:42:43.633Z,18.13
2019-03-01T11:45:15.779Z,18.90
2019-03-01T11:47:48.315Z,18.90
2019-03-01T11:50:21.968Z,20.30
2019-03-01T11:52:53.021Z,25.60
2019-03-01T11:55:24.559Z,24.03
2019-03-01T11:57:56.212Z,26.77
2019-03-01T12:00:27.479Z,34.03
2019-03-01T12:02:59.410Z,37.97
2019-03-01T12:05:31.172Z,44.00
2019-03-01T12:08:02.229Z,44.20
2019-03-01T12:10:34.054Z,48.30
2019-03-01T12:13:05.886Z,49.80
2019-03-01T12:15:37.997Z,51.60
2019-03-01T12:18:09.299Z,48.53
2019-03-01T12:20:40.597Z,54.07
2019-03-01T12:23:12.236Z,50.00
2019-03-01T12:25:43.622Z,47.40
2019-03-01T12:28:14.698Z,55.50
2019-03-01T12:30:46.843Z,56.37
2019-03-01T12:33:18.245Z,61.77
2019-03-01T12:35:49.853Z,61.13
2019-03-01T12:38:21.397Z,62.83
2019-03-01T12:40:53.210Z,60.73
2019-03-01T12:43:24.516Z,60.97
2019-03-01T12:45:56.211Z,66.87
2019-03-01T12:48:27.546Z,57.70
2019-03-01T12:50:59.197Z,65.55
2019-03-01T12:53:30.515Z,62.00
2019-03-01T12:56:01.863Z,60.00
2019-03-01T12:58:33.199Z,62.70
2019-03-01T13:01:05.115Z,66.20
2019-03-01T13:03:36.466Z,62.13
2019-03-01T13:06:08.507Z,64.83
2019-03-01T13:08:40.055Z,60.27
2019-03-01T13:11:15.978Z,63.67
2019-03-01T13:13:45.629Z,61.30
2019-03-01T13:16:17.311Z,59.67
2019-03-01T13:18:51.293Z,58.80
2019-03-01T13:21:22.649Z,56.77
2019-03-01T13:23:54.312Z,58.83
2019-03-01T13:26:25.945Z,61.30
2019-03-01T13:28:58.046Z,59.97
2019-03-01T13:31:30.149Z,59.70
2019-03-01T13:34:06.283Z,59.30
2019-03-01T13:36:40.541Z,63.37
2019-03-01T13:39:16.765Z,56.17
2019-03-01T13:41:51.753Z,60.53
2019-03-01T13:44:24.031Z,61.13
2019-03-01T13:46:55.363Z,62.67
2019-03-01T13:49:30.279Z,72.40
2019-03-01T13:52:00.032Z,74.58
2019-03-01T13:54:31.588Z,84.55
2019-03-01T13:57:03.212Z,79.03
2019-03-01T13:59:37.548Z,81.90
2019-03-01T14:02:09.597Z,81.30
2019-03-01T14:04:41.407Z,85.28
2019-03-01T14:07:14.414Z,89.52
2019-03-01T14:09:46.397Z,94.35
2019-03-01T14:12:18.170Z,94.42
2019-03-01T14:14:49.282Z,94.03
2019-03-01T14:17:24.462Z,97.85
2019-03-01T14:19:54.390Z,84.92
2019-03-01T14:22:26.178Z,84.70
2019-03-01T14:24:57.475Z,78.35
2019-03-01T14:27:29.544Z,73.17
2019-03-01T14:30:01.977Z,70.00
2019-03-01T14:32:34.891Z,65.78
2019-03-01T14:35:06.565Z,70.85
2019-03-01T14:37:37.967Z,74.75
2019-03-01T14:40:11.271Z,72.08
2019-03-01T14:42:46.413Z,75.22
2019-03-01T14:45:22.263Z,77.85
2019-03-01T14:47:54.062Z,71.47
2019-03-01T14:50:26.208Z,61.98
2019-03-01T14:52:58.878Z,63.08
2019-03-01T14:55:35.322Z,60.63
2019-03-01T14:58:12.493Z,64.50
2019-03-01T15:00:52.898Z,60.17
2019-03-01T15:03:33.929Z,59.30
2019-03-01T15:06:06.696Z,56.08
2019-03-01T15:08:40.479Z,51.55
2019-03-01T15:11:16.914Z,50.20
2019-03-01T15:13:49.820Z,48.20
2019-03-01T15:16:21.550Z,48.63
2019-03-01T15:18:53.168Z,52.85
2019-03-01T15:21:24.911Z,56.10
2019-03-01T15:24:00.101Z,51.20
2019-03-01T15:26:29.048Z,61.80
2019-03-01T15:29:00.498Z,49.27
2019-03-01T15:31:32.801Z,63.55
2019-03-01T15:34:04.152Z,64.00
2019-03-01T15:36:35.698Z,57.53
2019-03-01T15:39:08.454Z,57.50
2019-03-01T15:41:42.060Z,55.35
2019-03-01T15:44:13.715Z,56.02
2019-03-01T15:46:46.326Z,58.08
2019-03-01T15:49:23.543Z,59.20
2019-03-01T15:51:52.998Z,59.53
2019-03-01T15:54:24.617Z,61.70
2019-03-01T15:56:56.641Z,69.75
2019-03-01T15:59:28.895Z,65.95
2019-03-01T16:02:00.304Z,71.55
2019-03-01T16:04:33.625Z,78.25
2019-03-01T16:07:05.673Z,63.87
2019-03-01T16:09:36.695Z,61.53
2019-03-01T16:12:08.137Z,56.75
2019-03-01T16:14:39.328Z,62.78
2019-03-01T16:17:10.811Z,56.13
2019-03-01T16:19:42.172Z,58.73
2019-03-01T16:22:15.414Z,59.58
2019-03-01T16:24:47.545Z,57.45
2019-03-01T16:27:19.557Z,60.43
2019-03-01T16:29:52.628Z,66.30
2019-03-01T16:32:24.338Z,64.20
2019-03-01T16:34:56.052Z,63.05
2019-03-01T16:37:28.672Z,62.17
2019-03-01T16:40:01.560Z,61.83
2019-03-01T16:42:45.243Z,60.15
2019-03-01T16:45:22.457Z,63.85
2019-03-01T16:48:00.846Z,57.78
2019-03-01T16:50:34.930Z,55.60
2019-03-01T16:53:06.586Z,51.35
2019-03-01T16:55:38.002Z,47.67
2019-03-01T16:58:09.945Z,44.75
2019-03-01T17:00:42.018Z,48.17
2019-03-01T17:03:17.887Z,42.20
2019-03-01T17:05:48.435Z,41.10
2019-03-01T17:08:20.669Z,42.70
2019-03-01T17:10:52.030Z,40.28
2019-03-01T17:13:26.877Z,39.18
2019-03-01T17:15:56.859Z,36.33
2019-03-01T17:18:28.308Z,37.60
2019-03-01T17:20:59.723Z,42.40
2019-03-01T17:23:31.910Z,38.40
2019-03-01T17:26:03.887Z,39.65
2019-03-01T17:28:36.040Z,38.28
2019-03-01T17:31:08.036Z,39.25
2019-03-01T17:33:40.598Z,42.15
2019-03-01T17:36:12.995Z,41.00
2019-03-01T17:38:46.216Z,41.13
2019-03-01T17:41:18.764Z,42.30
2019-03-01T17:43:50.767Z,46.10
2019-03-01T17:46:22.844Z,40.17
2019-03-01T17:48:57.307Z,46.33
2019-03-01T17:51:28.904Z,43.92
2019-03-01T17:54:00.990Z,46.58
2019-03-01T17:56:33.357Z,53.48
2019-03-01T17:59:08.389Z,46.28
2019-03-01T18:01:40.313Z,50.50
2019-03-01T18:04:12.137Z,54.35
2019-03-01T18:06:43.572Z,47.53
2019-03-01T18:09:16.158Z,52.35
2019-03-01T18:11:48.300Z,42.23
2019-03-01T18:14:21.856Z,48.58
2019-03-01T18:16:53.493Z,44.77
2019-03-01T18:19:26.622Z,47.62
2019-03-01T18:21:58.893Z,47.35
2019-03-01T18:24:31.080Z,47.05
2019-03-01T18:27:02.944Z,43.35
2019-03-01T18:29:35.629Z,43.78
2019-03-01T18:32:10.025Z,42.80
2019-03-01T18:34:40.770Z,43.17
2019-03-01T18:37:19.435Z,44.90
2019-03-01T18:39:45.649Z,36.38
2019-03-01T18:42:17.568Z,40.65
2019-03-01T18:44:48.901Z,40.12
2019-03-01T18:47:21.451Z,31.23
2019-03-01T18:49:55.196Z,35.08
2019-03-01T18:52:26.274Z,31.55
2019-03-01T18:54:58.852Z,28.95
2019-03-01T18:57:30.202Z,34.43
2019-03-01T19:00:01.840Z,24.55
2019-03-01T19:02:35.723Z,26.80
2019-03-01T19:05:07.252Z,24.57
2019-03-01T19:07:39.469Z,22.48
2019-03-01T19:10:11.940Z,23.45
2019-03-01T19:12:44.917Z,20.10
2019-03-01T19:15:17.265Z,19.75
2019-03-01T19:17:48.934Z,23.20
2019-03-01T19:20:23.360Z,22.93
2019-03-01T19:22:55.826Z,18.25
2019-03-01T19:25:27.283Z,17.57
2019-03-01T19:27:59.396Z,16.37
2019-03-01T19:30:35.786Z,19.77
2019-03-01T19:33:07.359Z,17.73
2019-03-01T19:35:39.140Z,19.50
2019-03-01T19:38:11.360Z,19.30
2019-03-01T19:40:43.380Z,16.52
2019-03-01T19:43:17.200Z,19.07
2019-03-01T19:45:49.298Z,22.05
2019-03-01T19:48:21.603Z,19.15
2019-03-01T19:50:53.252Z,14.40
2019-03-01T19:53:26.464Z,17.80
2019-03-01T19:55:58.620Z,15.75
2019-03-01T19:58:30.051Z,16.27
2019-03-01T20:01:02.098Z,19.52
2019-03-01T20:03:34.536Z,20.08
2019-03-01T20:06:08.036Z,20.85
2019-03-01T20:08:40.231Z,19.95
2019-03-01T20:11:12.110Z,24.25
2019-03-01T20:13:44.522Z,22.50
2019-03-01T20:16:16.422Z,20.75
2019-03-01T20:18:48.113Z,18.32
2019-03-01T20:21:19.771Z,16.10
2019-03-01T20:23:51.186Z,16.70
2019-03-01T20:26:23.542Z,17.55
2019-03-01T20:28:56.455Z,19.00
2019-03-01T20:31:28.916Z,17.05
2019-03-01T20:34:01.888Z,15.58
2019-03-01T20:36:34.091Z,15.93
2019-03-01T20:39:07.275Z,15.53
2019-03-01T20:41:46.136Z,14.07
2019-03-01T20:44:18.799Z,15.15
2019-03-01T20:46:48.493Z,17.05
2019-03-01T20:49:20.278Z,18.90
2019-03-01T20:51:52.450Z,16.23
2019-03-01T20:54:25.782Z,15.70
2019-03-01T20:56:58.320Z,14.33
2019-03-01T20:59:29.760Z,14.45
2019-03-01T21:02:01.644Z,12.75
2019-03-01T21:04:36.620Z,14.03
2019-03-01T21:07:07.038Z,13.20
2019-03-01T21:09:40.526Z,15.55
2019-03-01T21:12:11.939Z,14.20
2019-03-01T21:14:43.460Z,17.00
2019-03-01T21:17:16.708Z,13.53
2019-03-01T21:19:49.467Z,13.80
2019-03-01T21:22:21.083Z,13.75
2019-03-01T21:25:10.977Z,14.73
2019-03-01T21:27:43.830Z,14.53
2019-03-01T21:30:27.062Z,11.50
2019-03-01T21:32:59.371Z,14.73
2019-03-01T21:35:30.780Z,14.98
2019-03-01T21:38:03.736Z,12.20
2019-03-01T21:40:35.661Z,11.10
2019-03-01T21:43:07.057Z,11.28
2019-03-01T21:45:38.853Z,15.63
2019-03-01T21:48:10.368Z,15.30
2019-03-01T21:50:43.521Z,16.20
2019-03-01T21:53:15.667Z,12.10
2019-03-01T21:55:47.730Z,12.23
2019-03-01T21:58:19.216Z,14.20
2019-03-01T22:00:50.941Z,13.68
2019-03-01T22:03:24.841Z,12.25
2019-03-01T22:05:56.714Z,11.20
2019-03-01T22:08:28.522Z,13.18
2019-03-01T22:11:00.243Z,14.25
2019-03-01T22:13:32.517Z,11.88
2019-03-01T22:16:04.737Z,14.53
2019-03-01T22:18:36.491Z,14.78
2019-03-01T22:21:07.990Z,11.63
2019-03-01T22:23:40.026Z,13.00
2019-03-01T22:26:13.657Z,11.48
2019-03-01T22:28:45.532Z,12.07
2019-03-01T22:31:18.247Z,15.93
2019-03-01T22:33:52.634Z,12.43
2019-03-01T22:36:23.173Z,13.43
2019-03-01T22:38:54.760Z,16.95
2019-03-01T22:41:26.340Z,11.10
2019-03-01T22:43:58.381Z,13.15
2019-03-01T22:46:31.653Z,12.23
2019-03-01T22:49:03.384Z,12.68
2019-03-01T22:51:35.388Z,13.55
2019-03-01T22:54:07.057Z,11.57
2019-03-01T22:56:38.912Z,12.25
2019-03-01T22:59:11.902Z,10.15
2019-03-01T23:01:44.964Z,11.30
2019-03-01T23:04:16.898Z,9.88
2019-03-01T23:06:51.517Z,15.25
2019-03-01T23:09:21.841Z,11.73
2019-03-01T23:11:53.777Z,13.08
2019-03-01T23:14:27.379Z,12.78
2019-03-01T23:16:57.532Z,12.47
2019-03-01T23:19:28.830Z,12.40
2019-03-01T23:22:00.421Z,12.25
2019-03-01T23:24:35.141Z,9.58
2019-03-01T23:27:05.429Z,12.18
2019-03-01T23:29:37.582Z,12.95
2019-03-01T23:32:11.904Z,12.65
2019-03-01T23:34:43.676Z,14.23
2019-03-01T23:37:15.814Z,16.40
2019-03-01T23:39:47.151Z,11.55
2019-03-01T23:42:20.893Z,9.08
2019-03-01T23:44:51.847Z,9.18
2019-03-01T23:47:23.155Z,11.70
2019-03-01T23:49:55.630Z,11.15
2019-03-01T23:52:26.859Z,10.20
2019-03-01T23:54:58.292Z,8.48
2019-03-01T23:57:30.406Z,9.93
